sensor_id;sensor_type;location;lat;lon;timestamp;pressure;altitude;pressure_sealevel;temperature;humidity
59106;BME280;44891;50.204;8.132;2023-09-19T00:02:43;97663.34;;;17.25;100.00
59106;BME280;44891;50.204;8.132;2023-09-19T00:06:48;97665.78;;;17.08;99.45
59106;BME280;44891;50.204;8.132;2023-09-19T00:10:51;97665.63;;;17.18;98.87
59106;BME280;44891;50.204;8.132;2023-09-19T00:14:54;97673.34;;;17.15;98.14
59106;BME280;44891;50.204;8.132;2023-09-19T00:18:59;97680.94;;;17.21;97.37
59106;BME280;44891;50.204;8.132;2023-09-19T00:23:03;97678.47;;;17.11;98.43
59106;BME280;44891;50.204;8.132;2023-09-19T00:27:10;97686.34;;;17.16;98.88
59106;BME280;44891;50.204;8.132;2023-09-19T00:31:12;97686.03;;;17.04;99.54
59106;BME280;44891;50.204;8.132;2023-09-19T00:35:16;97697.63;;;17.08;99.49
59106;BME280;44891;50.204;8.132;2023-09-19T00:39:18;97696.47;;;17.14;99.11
59106;BME280;44891;50.204;8.132;2023-09-19T00:43:21;97703.41;;;17.10;99.60
59106;BME280;44891;50.204;8.132;2023-09-19T00:47:24;97702.03;;;16.99;100.00
59106;BME280;44891;50.204;8.132;2023-09-19T00:51:28;97703.63;;;17.00;98.83
59106;BME280;44891;50.204;8.132;2023-09-19T00:55:30;97704.06;;;16.88;99.56
59106;BME280;44891;50.204;8.132;2023-09-19T00:59:33;97710.13;;;16.75;99.22
59106;BME280;44891;50.204;8.132;2023-09-19T01:03:36;97718.31;;;16.78;98.80
59106;BME280;44891;50.204;8.132;2023-09-19T01:07:40;97724.75;;;16.72;100.00
59106;BME280;44891;50.204;8.132;2023-09-19T01:11:43;97722.88;;;16.54;100.00
59106;BME280;44891;50.204;8.132;2023-09-19T01:20:16;97728.25;;;16.49;99.38
59106;BME280;44891;50.204;8.132;2023-09-19T01:24:53;97739.03;;;16.39;98.98
59106;BME280;44891;50.204;8.132;2023-09-19T01:29:12;97732.28;;;16.46;98.79
59106;BME280;44891;50.204;8.132;2023-09-19T01:33:22;97749.97;;;16.51;98.58
59106;BME280;44891;50.204;8.132;2023-09-19T01:37:25;97751.63;;;16.47;97.90
59106;BME280;44891;50.204;8.132;2023-09-19T01:41:35;97771.69;;;16.34;98.91
59106;BME280;44891;50.204;8.132;2023-09-19T01:45:46;97764.66;;;16.43;99.36
59106;BME280;44891;50.204;8.132;2023-09-19T01:50:08;97769.81;;;16.35;99.38
59106;BME280;44891;50.204;8.132;2023-09-19T01:54:12;97763.94;;;16.19;99.00
59106;BME280;44891;50.204;8.132;2023-09-19T01:58:21;97780.22;;;16.31;98.18
59106;BME280;44891;50.204;8.132;2023-09-19T02:02:27;97777.44;;;16.17;98.08
59106;BME280;44891;50.204;8.132;2023-09-19T02:06:32;97770.88;;;15.91;99.75
59106;BME280;44891;50.204;8.132;2023-09-19T02:10:35;97774.72;;;16.03;98.91
59106;BME280;44891;50.204;8.132;2023-09-19T02:14:42;97781.31;;;16.06;98.22
59106;BME280;44891;50.204;8.132;2023-09-19T02:18:44;97783.13;;;15.87;97.16
59106;BME280;44891;50.204;8.132;2023-09-19T02:22:48;97788.63;;;15.90;98.41
59106;BME280;44891;50.204;8.132;2023-09-19T02:26:50;97779.84;;;15.95;95.53
59106;BME280;44891;50.204;8.132;2023-09-19T02:30:53;97795.31;;;15.88;95.33
59106;BME280;44891;50.204;8.132;2023-09-19T02:34:56;97792.00;;;15.96;93.20
59106;BME280;44891;50.204;8.132;2023-09-19T02:39:00;97780.66;;;15.71;93.16
59106;BME280;44891;50.204;8.132;2023-09-19T02:43:02;97790.63;;;15.80;93.51
59106;BME280;44891;50.204;8.132;2023-09-19T02:47:05;97790.53;;;15.61;92.31
59106;BME280;44891;50.204;8.132;2023-09-19T02:51:08;97796.03;;;15.69;92.23
59106;BME280;44891;50.204;8.132;2023-09-19T02:55:12;97800.81;;;15.67;91.04
59106;BME280;44891;50.204;8.132;2023-09-19T02:59:15;97807.19;;;15.66;93.05
59106;BME280;44891;50.204;8.132;2023-09-19T03:03:17;97800.47;;;15.45;92.21
59106;BME280;44891;50.204;8.132;2023-09-19T03:07:19;97804.84;;;15.60;92.48
59106;BME280;44891;50.204;8.132;2023-09-19T03:11:23;97803.59;;;15.52;92.42
59106;BME280;44891;50.204;8.132;2023-09-19T03:15:30;97812.50;;;15.61;92.58
59106;BME280;44891;50.204;8.132;2023-09-19T03:19:32;97818.84;;;15.65;92.35
59106;BME280;44891;50.204;8.132;2023-09-19T03:23:34;97818.56;;;15.67;93.09
59106;BME280;44891;50.204;8.132;2023-09-19T03:27:39;97813.03;;;15.63;92.55
59106;BME280;44891;50.204;8.132;2023-09-19T03:31:41;97818.06;;;15.60;92.65
59106;BME280;44891;50.204;8.132;2023-09-19T03:35:52;97826.81;;;15.60;93.48
59106;BME280;44891;50.204;8.132;2023-09-19T03:39:54;97835.28;;;15.62;93.12
59106;BME280;44891;50.204;8.132;2023-09-19T03:43:58;97831.84;;;15.62;93.68
59106;BME280;44891;50.204;8.132;2023-09-19T03:48:00;97838.00;;;15.52;93.49
59106;BME280;44891;50.204;8.132;2023-09-19T03:52:03;97840.66;;;15.52;95.55
59106;BME280;44891;50.204;8.132;2023-09-19T03:56:05;97848.59;;;15.52;94.39
59106;BME280;44891;50.204;8.132;2023-09-19T04:00:11;97846.94;;;15.56;95.50
59106;BME280;44891;50.204;8.132;2023-09-19T04:04:15;97851.56;;;15.45;95.54
59106;BME280;44891;50.204;8.132;2023-09-19T04:08:19;97843.84;;;15.49;96.35
59106;BME280;44891;50.204;8.132;2023-09-19T04:12:21;97845.19;;;15.46;96.41
59106;BME280;44891;50.204;8.132;2023-09-19T04:16:25;97849.41;;;15.47;96.71
59106;BME280;44891;50.204;8.132;2023-09-19T04:20:27;97848.31;;;15.54;96.21
59106;BME280;44891;50.204;8.132;2023-09-19T04:24:29;97856.53;;;15.52;94.44
59106;BME280;44891;50.204;8.132;2023-09-19T04:28:32;97864.41;;;15.57;94.49
59106;BME280;44891;50.204;8.132;2023-09-19T04:32:36;97861.06;;;15.46;95.16
59106;BME280;44891;50.204;8.132;2023-09-19T04:36:40;97862.78;;;15.66;94.00
59106;BME280;44891;50.204;8.132;2023-09-19T04:40:42;97874.44;;;15.60;94.16
59106;BME280;44891;50.204;8.132;2023-09-19T04:44:44;97870.81;;;15.51;94.77
59106;BME280;44891;50.204;8.132;2023-09-19T04:48:48;97864.50;;;15.47;94.02
59106;BME280;44891;50.204;8.132;2023-09-19T04:52:50;97869.78;;;15.47;94.09
59106;BME280;44891;50.204;8.132;2023-09-19T04:56:52;97873.56;;;15.41;95.08
59106;BME280;44891;50.204;8.132;2023-09-19T05:00:54;97874.63;;;15.40;94.25
59106;BME280;44891;50.204;8.132;2023-09-19T05:04:58;97890.75;;;15.38;94.91
59106;BME280;44891;50.204;8.132;2023-09-19T05:09:01;97887.13;;;15.29;95.84
59106;BME280;44891;50.204;8.132;2023-09-19T05:13:06;97891.59;;;15.34;96.01
59106;BME280;44891;50.204;8.132;2023-09-19T05:17:09;97894.25;;;15.34;96.35
59106;BME280;44891;50.204;8.132;2023-09-19T05:21:12;97897.38;;;15.41;96.32
59106;BME280;44891;50.204;8.132;2023-09-19T05:25:14;97906.91;;;15.37;96.64
59106;BME280;44891;50.204;8.132;2023-09-19T05:29:18;97899.22;;;15.40;96.63
59106;BME280;44891;50.204;8.132;2023-09-19T05:33:20;97900.78;;;15.46;96.40
59106;BME280;44891;50.204;8.132;2023-09-19T05:37:23;97900.97;;;15.50;95.61
59106;BME280;44891;50.204;8.132;2023-09-19T05:41:27;97905.38;;;15.31;95.89
59106;BME280;44891;50.204;8.132;2023-09-19T05:45:29;97904.41;;;15.50;94.80
59106;BME280;44891;50.204;8.132;2023-09-19T05:49:31;97905.19;;;15.56;95.07
59106;BME280;44891;50.204;8.132;2023-09-19T05:53:35;97897.22;;;15.56;95.26
59106;BME280;44891;50.204;8.132;2023-09-19T05:57:37;97909.41;;;15.57;95.63
59106;BME280;44891;50.204;8.132;2023-09-19T06:01:40;97905.41;;;15.65;95.23
59106;BME280;44891;50.204;8.132;2023-09-19T06:05:43;97920.69;;;15.73;94.36
59106;BME280;44891;50.204;8.132;2023-09-19T06:09:48;97929.75;;;15.67;94.38
59106;BME280;44891;50.204;8.132;2023-09-19T06:13:50;97893.16;;;15.40;94.72
59106;BME280;44891;50.204;8.132;2023-09-19T06:17:55;97936.94;;;15.56;94.37
59106;BME280;44891;50.204;8.132;2023-09-19T06:21:58;97937.81;;;15.46;92.86
59106;BME280;44891;50.204;8.132;2023-09-19T06:26:02;97944.34;;;15.59;93.03
59106;BME280;44891;50.204;8.132;2023-09-19T06:30:08;97946.44;;;15.62;92.92
59106;BME280;44891;50.204;8.132;2023-09-19T06:34:12;97940.16;;;15.53;92.77
59106;BME280;44891;50.204;8.132;2023-09-19T06:38:15;97949.06;;;15.67;92.09
59106;BME280;44891;50.204;8.132;2023-09-19T06:42:19;97955.19;;;15.58;90.41
59106;BME280;44891;50.204;8.132;2023-09-19T06:46:23;97969.19;;;15.63;90.98
59106;BME280;44891;50.204;8.132;2023-09-19T06:50:26;97975.03;;;15.65;89.76
59106;BME280;44891;50.204;8.132;2023-09-19T06:54:28;97983.66;;;15.76;90.42
59106;BME280;44891;50.204;8.132;2023-09-19T06:58:33;97989.44;;;15.83;89.63
59106;BME280;44891;50.204;8.132;2023-09-19T07:02:37;97993.25;;;15.72;90.47
59106;BME280;44891;50.204;8.132;2023-09-19T07:06:39;98004.97;;;15.95;91.26
59106;BME280;44891;50.204;8.132;2023-09-19T07:10:42;98014.84;;;16.18;88.62
59106;BME280;44891;50.204;8.132;2023-09-19T07:14:47;98027.84;;;16.15;87.36
59106;BME280;44891;50.204;8.132;2023-09-19T07:18:49;98029.66;;;16.19;86.73
59106;BME280;44891;50.204;8.132;2023-09-19T07:22:51;98040.59;;;16.13;86.08
59106;BME280;44891;50.204;8.132;2023-09-19T07:26:55;98038.09;;;15.92;83.65
59106;BME280;44891;50.204;8.132;2023-09-19T07:31:01;98038.09;;;15.92;83.89
59106;BME280;44891;50.204;8.132;2023-09-19T07:35:05;98044.72;;;15.90;82.91
59106;BME280;44891;50.204;8.132;2023-09-19T07:39:07;98048.69;;;15.92;81.63
59106;BME280;44891;50.204;8.132;2023-09-19T07:43:09;98045.41;;;15.71;82.35
59106;BME280;44891;50.204;8.132;2023-09-19T07:47:13;98054.38;;;15.75;83.90
59106;BME280;44891;50.204;8.132;2023-09-19T07:51:15;98048.09;;;16.00;82.56
59106;BME280;44891;50.204;8.132;2023-09-19T07:55:18;98057.03;;;16.10;80.92
59106;BME280;44891;50.204;8.132;2023-09-19T07:59:21;98065.22;;;16.13;79.67
59106;BME280;44891;50.204;8.132;2023-09-19T08:03:25;98063.88;;;16.16;78.05
59106;BME280;44891;50.204;8.132;2023-09-19T08:07:28;98074.75;;;16.43;78.06
59106;BME280;44891;50.204;8.132;2023-09-19T08:11:30;98077.72;;;16.37;76.32
59106;BME280;44891;50.204;8.132;2023-09-19T08:15:33;98080.00;;;16.19;75.87
59106;BME280;44891;50.204;8.132;2023-09-19T08:19:37;98082.56;;;16.29;75.54
59106;BME280;44891;50.204;8.132;2023-09-19T08:23:42;98084.38;;;16.34;74.37
59106;BME280;44891;50.204;8.132;2023-09-19T08:27:45;98079.81;;;16.69;75.65
59106;BME280;44891;50.204;8.132;2023-09-19T08:31:49;98077.53;;;16.57;73.98
59106;BME280;44891;50.204;8.132;2023-09-19T08:35:55;98090.41;;;16.74;74.02
59106;BME280;44891;50.204;8.132;2023-09-19T08:39:57;98082.75;;;16.72;72.73
59106;BME280;44891;50.204;8.132;2023-09-19T08:43:59;98089.56;;;16.78;71.91
59106;BME280;44891;50.204;8.132;2023-09-19T08:48:16;98078.84;;;16.89;73.99
59106;BME280;44891;50.204;8.132;2023-09-19T08:52:25;98097.59;;;16.68;71.79
59106;BME280;44891;50.204;8.132;2023-09-19T08:56:29;98099.72;;;16.66;70.32
59106;BME280;44891;50.204;8.132;2023-09-19T09:00:32;98099.16;;;16.69;71.38
59106;BME280;44891;50.204;8.132;2023-09-19T09:04:38;98097.78;;;16.77;71.87
59106;BME280;44891;50.204;8.132;2023-09-19T09:08:43;98095.09;;;17.06;69.56
59106;BME280;44891;50.204;8.132;2023-09-19T09:12:46;98098.94;;;17.19;70.94
59106;BME280;44891;50.204;8.132;2023-09-19T09:16:48;98097.81;;;17.25;69.89
59106;BME280;44891;50.204;8.132;2023-09-19T09:20:51;98104.72;;;17.45;70.02
59106;BME280;44891;50.204;8.132;2023-09-19T09:24:57;98068.47;;;17.35;68.88
59106;BME280;44891;50.204;8.132;2023-09-19T09:28:59;98107.22;;;17.79;68.70
59106;BME280;44891;50.204;8.132;2023-09-19T09:33:08;98109.47;;;17.66;68.69
59106;BME280;44891;50.204;8.132;2023-09-19T09:37:13;98111.94;;;17.63;66.64
59106;BME280;44891;50.204;8.132;2023-09-19T09:41:18;98111.28;;;17.28;68.46
59106;BME280;44891;50.204;8.132;2023-09-19T09:45:28;98112.16;;;17.43;66.51
59106;BME280;44891;50.204;8.132;2023-09-19T09:49:38;98108.25;;;17.59;63.45
59106;BME280;44891;50.204;8.132;2023-09-19T09:53:40;98103.16;;;17.62;64.81
59106;BME280;44891;50.204;8.132;2023-09-19T09:57:43;98109.72;;;18.08;65.67
59106;BME280;44891;50.204;8.132;2023-09-19T10:01:46;98098.00;;;18.09;65.64
59106;BME280;44891;50.204;8.132;2023-09-19T10:05:53;98103.44;;;18.36;64.80
59106;BME280;44891;50.204;8.132;2023-09-19T10:09:56;98102.06;;;18.53;64.16
59106;BME280;44891;50.204;8.132;2023-09-19T10:14:07;98105.75;;;18.57;63.65
59106;BME280;44891;50.204;8.132;2023-09-19T10:18:11;98102.31;;;18.24;63.03
59106;BME280;44891;50.204;8.132;2023-09-19T10:22:19;98111.94;;;18.01;61.58
59106;BME280;44891;50.204;8.132;2023-09-19T10:26:23;97994.22;;;17.49;60.66
59106;BME280;44891;50.204;8.132;2023-09-19T10:30:28;98101.06;;;18.48;60.24
59106;BME280;44891;50.204;8.132;2023-09-19T10:34:34;98094.06;;;18.85;59.75
59106;BME280;44891;50.204;8.132;2023-09-19T10:38:38;98091.72;;;18.97;59.14
59106;BME280;44891;50.204;8.132;2023-09-19T10:42:43;98096.16;;;19.02;59.29
59106;BME280;44891;50.204;8.132;2023-09-19T10:46:49;98094.06;;;19.26;59.86
59106;BME280;44891;50.204;8.132;2023-09-19T10:50:58;98078.41;;;19.11;59.79
59106;BME280;44891;50.204;8.132;2023-09-19T10:55:06;98094.75;;;19.60;58.01
59106;BME280;44891;50.204;8.132;2023-09-19T10:59:12;98086.97;;;19.86;56.66
59106;BME280;44891;50.204;8.132;2023-09-19T11:03:19;98091.75;;;19.75;55.42
59106;BME280;44891;50.204;8.132;2023-09-19T11:07:24;98074.56;;;19.81;54.83
59106;BME280;44891;50.204;8.132;2023-09-19T11:11:40;98083.13;;;20.14;55.89
59106;BME280;44891;50.204;8.132;2023-09-19T11:16:17;98074.06;;;19.79;55.03
59106;BME280;44891;50.204;8.132;2023-09-19T11:20:23;98072.63;;;19.95;52.74
59106;BME280;44891;50.204;8.132;2023-09-19T11:24:45;98062.97;;;20.53;52.40
59106;BME280;44891;50.204;8.132;2023-09-19T11:28:47;98066.59;;;20.57;52.31
59106;BME280;44891;50.204;8.132;2023-09-19T11:33:17;98060.16;;;20.98;51.32
59106;BME280;44891;50.204;8.132;2023-09-19T11:42:43;98057.19;;;21.74;50.32
59106;BME280;44891;50.204;8.132;2023-09-19T11:46:53;98055.22;;;22.43;48.99
59106;BME280;44891;50.204;8.132;2023-09-19T11:50:56;98051.81;;;21.91;47.16
59106;BME280;44891;50.204;8.132;2023-09-19T11:55:00;98056.84;;;21.84;49.71
59106;BME280;44891;50.204;8.132;2023-09-19T11:59:04;98059.53;;;22.01;47.45
59106;BME280;44891;50.204;8.132;2023-09-19T12:03:08;98051.34;;;21.45;46.28
59106;BME280;44891;50.204;8.132;2023-09-19T12:07:13;98057.91;;;22.43;47.03
59106;BME280;44891;50.204;8.132;2023-09-19T12:11:17;98053.06;;;23.13;45.09
59106;BME280;44891;50.204;8.132;2023-09-19T12:15:25;98048.41;;;23.94;44.74
59106;BME280;44891;50.204;8.132;2023-09-19T12:19:29;98049.53;;;23.93;44.93
59106;BME280;44891;50.204;8.132;2023-09-19T12:23:32;98050.19;;;26.10;41.77
59106;BME280;44891;50.204;8.132;2023-09-19T12:27:42;98029.72;;;25.93;41.63
59106;BME280;44891;50.204;8.132;2023-09-19T12:31:50;98019.81;;;27.39;39.86
59106;BME280;44891;50.204;8.132;2023-09-19T12:35:52;98035.38;;;27.10;39.06
59106;BME280;44891;50.204;8.132;2023-09-19T12:40:04;98035.59;;;27.56;37.09
59106;BME280;44891;50.204;8.132;2023-09-19T12:44:16;98014.94;;;26.94;38.68
59106;BME280;44891;50.204;8.132;2023-09-19T12:48:21;98026.28;;;26.52;39.56
59106;BME280;44891;50.204;8.132;2023-09-19T12:52:34;98021.16;;;26.63;39.32
59106;BME280;44891;50.204;8.132;2023-09-19T12:56:41;98011.22;;;26.35;38.93
59106;BME280;44891;50.204;8.132;2023-09-19T13:00:45;98007.63;;;26.43;39.60
59106;BME280;44891;50.204;8.132;2023-09-19T13:04:53;98007.91;;;27.98;38.22
59106;BME280;44891;50.204;8.132;2023-09-19T13:09:08;98016.59;;;26.98;38.46
59106;BME280;44891;50.204;8.132;2023-09-19T13:13:22;98006.06;;;27.44;38.97
59106;BME280;44891;50.204;8.132;2023-09-19T13:17:42;98013.03;;;26.31;38.91
59106;BME280;44891;50.204;8.132;2023-09-19T13:21:47;98012.09;;;25.67;40.79
59106;BME280;44891;50.204;8.132;2023-09-19T13:25:52;97995.81;;;26.48;39.87
59106;BME280;44891;50.204;8.132;2023-09-19T13:29:54;98008.03;;;26.77;38.77
59106;BME280;44891;50.204;8.132;2023-09-19T13:33:56;97994.31;;;29.09;35.95
59106;BME280;44891;50.204;8.132;2023-09-19T13:37:59;97988.28;;;28.70;35.77
59106;BME280;44891;50.204;8.132;2023-09-19T13:42:02;97990.94;;;28.40;35.80
59106;BME280;44891;50.204;8.132;2023-09-19T13:46:05;97987.31;;;29.65;35.04
59106;BME280;44891;50.204;8.132;2023-09-19T13:50:09;97968.00;;;27.30;37.10
59106;BME280;44891;50.204;8.132;2023-09-19T13:54:12;97988.81;;;26.78;38.44
59106;BME280;44891;50.204;8.132;2023-09-19T13:58:15;97969.66;;;27.73;37.06
59106;BME280;44891;50.204;8.132;2023-09-19T14:02:17;97975.34;;;28.83;36.76
59106;BME280;44891;50.204;8.132;2023-09-19T14:06:19;97960.53;;;28.47;36.16
59106;BME280;44891;50.204;8.132;2023-09-19T14:10:22;97973.78;;;27.86;37.03
59106;BME280;44891;50.204;8.132;2023-09-19T14:14:25;97955.06;;;29.22;37.15
59106;BME280;44891;50.204;8.132;2023-09-19T14:18:27;97961.28;;;29.94;35.32
59106;BME280;44891;50.204;8.132;2023-09-19T14:22:30;97957.56;;;29.68;35.41
59106;BME280;44891;50.204;8.132;2023-09-19T14:26:34;97954.63;;;28.64;36.89
59106;BME280;44891;50.204;8.132;2023-09-19T14:30:36;97947.00;;;28.96;36.07
59106;BME280;44891;50.204;8.132;2023-09-19T14:34:39;97937.94;;;30.67;35.03
59106;BME280;44891;50.204;8.132;2023-09-19T14:38:43;97941.44;;;30.68;34.46
59106;BME280;44891;50.204;8.132;2023-09-19T14:42:47;97898.84;;;29.72;34.85
59106;BME280;44891;50.204;8.132;2023-09-19T14:46:50;97921.75;;;27.89;37.69
59106;BME280;44891;50.204;8.132;2023-09-19T14:50:52;97921.44;;;27.14;38.80
59106;BME280;44891;50.204;8.132;2023-09-19T14:54:55;97924.41;;;27.67;38.48
59106;BME280;44891;50.204;8.132;2023-09-19T14:58:59;97917.44;;;26.88;38.68
59106;BME280;44891;50.204;8.132;2023-09-19T15:03:01;97922.19;;;28.37;37.25
59106;BME280;44891;50.204;8.132;2023-09-19T15:07:03;97921.16;;;28.23;37.75
59106;BME280;44891;50.204;8.132;2023-09-19T15:11:05;97918.88;;;28.25;36.77
59106;BME280;44891;50.204;8.132;2023-09-19T15:15:09;97925.28;;;27.51;37.58
59106;BME280;44891;50.204;8.132;2023-09-19T15:19:13;97923.09;;;26.83;38.15
59106;BME280;44891;50.204;8.132;2023-09-19T15:23:16;97913.00;;;26.29;39.48
59106;BME280;44891;50.204;8.132;2023-09-19T15:27:19;97912.50;;;25.64;40.25
59106;BME280;44891;50.204;8.132;2023-09-19T15:31:23;97913.97;;;24.81;40.97
59106;BME280;44891;50.204;8.132;2023-09-19T15:35:25;97921.13;;;24.15;42.81
59106;BME280;44891;50.204;8.132;2023-09-19T15:39:29;97923.16;;;23.61;44.37
59106;BME280;44891;50.204;8.132;2023-09-19T15:43:34;97929.63;;;22.68;45.48
59106;BME280;44891;50.204;8.132;2023-09-19T15:47:37;97916.25;;;22.38;47.71
59106;BME280;44891;50.204;8.132;2023-09-19T15:51:39;97931.38;;;22.34;47.50
59106;BME280;44891;50.204;8.132;2023-09-19T15:55:43;97921.81;;;22.24;47.83
59106;BME280;44891;50.204;8.132;2023-09-19T15:59:46;97923.16;;;22.01;48.81
59106;BME280;44891;50.204;8.132;2023-09-19T16:03:51;97919.69;;;22.09;49.34
59106;BME280;44891;50.204;8.132;2023-09-19T16:07:54;97903.31;;;22.02;49.31
59106;BME280;44891;50.204;8.132;2023-09-19T16:11:56;97917.84;;;21.84;50.71
59106;BME280;44891;50.204;8.132;2023-09-19T16:15:58;97914.75;;;21.64;50.66
59106;BME280;44891;50.204;8.132;2023-09-19T16:20:02;97914.47;;;21.31;51.71
59106;BME280;44891;50.204;8.132;2023-09-19T16:24:04;97915.56;;;21.30;52.51
59106;BME280;44891;50.204;8.132;2023-09-19T16:28:07;97913.84;;;21.34;52.90
59106;BME280;44891;50.204;8.132;2023-09-19T16:32:09;97912.09;;;21.21;52.86
59106;BME280;44891;50.204;8.132;2023-09-19T16:36:14;97910.38;;;21.42;53.39
59106;BME280;44891;50.204;8.132;2023-09-19T16:40:17;97907.38;;;21.27;53.80
59106;BME280;44891;50.204;8.132;2023-09-19T16:44:19;97905.66;;;20.96;53.99
59106;BME280;44891;50.204;8.132;2023-09-19T16:48:21;97901.06;;;20.79;54.32
59106;BME280;44891;50.204;8.132;2023-09-19T16:52:25;97906.44;;;20.88;54.57
59106;BME280;44891;50.204;8.132;2023-09-19T16:56:27;97907.19;;;20.80;55.03
59106;BME280;44891;50.204;8.132;2023-09-19T17:00:29;97917.03;;;20.53;55.37
59106;BME280;44891;50.204;8.132;2023-09-19T17:04:31;97913.94;;;20.29;56.00
59106;BME280;44891;50.204;8.132;2023-09-19T17:08:35;97924.63;;;20.29;56.73
59106;BME280;44891;50.204;8.132;2023-09-19T17:12:38;97936.97;;;20.25;57.06
59106;BME280;44891;50.204;8.132;2023-09-19T17:16:40;97932.22;;;20.13;56.94
59106;BME280;44891;50.204;8.132;2023-09-19T17:20:42;97929.66;;;20.39;56.87
59106;BME280;44891;50.204;8.132;2023-09-19T17:24:46;97935.53;;;20.19;57.84
59106;BME280;44891;50.204;8.132;2023-09-19T17:28:48;97939.41;;;20.04;58.07
59106;BME280;44891;50.204;8.132;2023-09-19T17:32:50;97939.66;;;19.94;58.53
59106;BME280;44891;50.204;8.132;2023-09-19T17:36:52;97942.50;;;19.97;58.91
59106;BME280;44891;50.204;8.132;2023-09-19T17:41:00;97933.53;;;19.93;58.64
59106;BME280;44891;50.204;8.132;2023-09-19T17:45:04;97936.25;;;20.02;59.44
59106;BME280;44891;50.204;8.132;2023-09-19T17:49:06;97939.19;;;19.92;58.95
59106;BME280;44891;50.204;8.132;2023-09-19T17:53:09;97937.56;;;19.82;59.13
59106;BME280;44891;50.204;8.132;2023-09-19T17:57:12;97927.16;;;19.72;59.68
59106;BME280;44891;50.204;8.132;2023-09-19T18:01:15;97938.28;;;19.74;59.69
59106;BME280;44891;50.204;8.132;2023-09-19T18:05:18;97937.94;;;19.67;60.46
59106;BME280;44891;50.204;8.132;2023-09-19T18:09:22;97934.63;;;19.61;61.45
59106;BME280;44891;50.204;8.132;2023-09-19T18:13:25;97944.22;;;19.71;61.33
59106;BME280;44891;50.204;8.132;2023-09-19T18:17:27;97950.44;;;19.44;61.53
59106;BME280;44891;50.204;8.132;2023-09-19T18:21:32;97955.06;;;19.16;62.56
59106;BME280;44891;50.204;8.132;2023-09-19T18:25:34;97960.78;;;19.23;62.96
59106;BME280;44891;50.204;8.132;2023-09-19T18:29:39;97970.06;;;19.12;62.79
59106;BME280;44891;50.204;8.132;2023-09-19T18:33:44;97959.63;;;19.15;63.16
59106;BME280;44891;50.204;8.132;2023-09-19T18:37:48;97967.81;;;19.05;63.46
59106;BME280;44891;50.204;8.132;2023-09-19T18:41:52;97960.31;;;19.07;63.32
59106;BME280;44891;50.204;8.132;2023-09-19T18:45:57;97963.56;;;19.04;63.63
59106;BME280;44891;50.204;8.132;2023-09-19T18:49:59;97958.59;;;18.89;64.60
59106;BME280;44891;50.204;8.132;2023-09-19T18:54:02;97964.50;;;18.72;65.09
59106;BME280;44891;50.204;8.132;2023-09-19T18:58:04;97964.78;;;18.57;65.76
59106;BME280;44891;50.204;8.132;2023-09-19T19:02:08;97962.41;;;18.55;66.83
59106;BME280;44891;50.204;8.132;2023-09-19T19:06:13;97968.72;;;18.45;66.12
59106;BME280;44891;50.204;8.132;2023-09-19T19:10:16;97962.41;;;18.41;66.35
59106;BME280;44891;50.204;8.132;2023-09-19T19:14:20;97957.59;;;18.43;66.16
59106;BME280;44891;50.204;8.132;2023-09-19T19:18:24;97961.59;;;18.27;66.59
59106;BME280;44891;50.204;8.132;2023-09-19T19:22:30;97958.78;;;18.37;67.07
59106;BME280;44891;50.204;8.132;2023-09-19T19:26:33;97958.38;;;18.16;68.06
59106;BME280;44891;50.204;8.132;2023-09-19T19:30:42;97965.41;;;18.07;68.42
59106;BME280;44891;50.204;8.132;2023-09-19T19:34:46;97963.94;;;18.01;68.55
59106;BME280;44891;50.204;8.132;2023-09-19T19:38:48;97970.94;;;18.11;68.18
59106;BME280;44891;50.204;8.132;2023-09-19T19:42:50;97962.44;;;17.95;68.73
59106;BME280;44891;50.204;8.132;2023-09-19T19:46:52;97969.94;;;18.07;68.83
59106;BME280;44891;50.204;8.132;2023-09-19T19:50:56;97925.66;;;17.70;69.10
59106;BME280;44891;50.204;8.132;2023-09-19T19:54:59;97980.25;;;17.94;69.72
59106;BME280;44891;50.204;8.132;2023-09-19T19:59:01;97983.53;;;18.05;69.21
59106;BME280;44891;50.204;8.132;2023-09-19T20:03:04;97982.38;;;18.11;69.30
59106;BME280;44891;50.204;8.132;2023-09-19T20:07:08;97980.97;;;18.14;69.14
59106;BME280;44891;50.204;8.132;2023-09-19T20:11:11;97982.38;;;18.11;69.68
59106;BME280;44891;50.204;8.132;2023-09-19T20:15:14;97974.09;;;18.13;69.50
59106;BME280;44891;50.204;8.132;2023-09-19T20:19:16;97980.13;;;18.18;69.87
59106;BME280;44891;50.204;8.132;2023-09-19T20:23:22;97983.31;;;18.02;70.28
59106;BME280;44891;50.204;8.132;2023-09-19T20:27:24;97988.25;;;18.08;70.09
59106;BME280;44891;50.204;8.132;2023-09-19T20:31:26;97991.50;;;18.05;70.26
59106;BME280;44891;50.204;8.132;2023-09-19T20:35:28;97989.56;;;18.11;70.19
59106;BME280;44891;50.204;8.132;2023-09-19T20:39:32;97991.41;;;18.10;70.82
59106;BME280;44891;50.204;8.132;2023-09-19T20:43:34;97988.16;;;18.13;70.87
59106;BME280;44891;50.204;8.132;2023-09-19T20:47:38;97984.63;;;18.18;70.40
59106;BME280;44891;50.204;8.132;2023-09-19T20:51:41;97978.59;;;17.99;71.17
59106;BME280;44891;50.204;8.132;2023-09-19T20:55:44;97988.63;;;18.02;71.53
59106;BME280;44891;50.204;8.132;2023-09-19T20:59:46;97994.91;;;17.92;72.10
59106;BME280;44891;50.204;8.132;2023-09-19T21:03:48;98000.63;;;17.99;71.47
59106;BME280;44891;50.204;8.132;2023-09-19T21:07:50;97990.13;;;18.08;71.07
59106;BME280;44891;50.204;8.132;2023-09-19T21:11:54;97985.41;;;18.05;71.51
59106;BME280;44891;50.204;8.132;2023-09-19T21:15:56;97984.69;;;17.99;71.70
59106;BME280;44891;50.204;8.132;2023-09-19T21:19:58;97987.75;;;18.06;71.87
59106;BME280;44891;50.204;8.132;2023-09-19T21:24:00;98000.47;;;17.77;72.28
59106;BME280;44891;50.204;8.132;2023-09-19T21:28:05;97994.69;;;17.88;72.37
59106;BME280;44891;50.204;8.132;2023-09-19T21:32:07;97991.47;;;17.91;72.00
59106;BME280;44891;50.204;8.132;2023-09-19T21:36:11;97944.47;;;17.73;72.30
59106;BME280;44891;50.204;8.132;2023-09-19T21:40:20;97988.25;;;18.08;71.81
59106;BME280;44891;50.204;8.132;2023-09-19T21:44:23;97990.38;;;17.92;71.73